Time;durP1;ratioP1;P1;durP2;ratioP2;P2;SDS_P1;SDS_P2;PMS_P1;PMS_P2;Temp;Humidity;BMP_temperature;BMP_pressure;BME280_temperature;BME280_humidity;BME280_pressure;Samples;Min_cycle;Max_cycle;Signal;HPM_P1;HPM_P2
2023/04/21 00:00:54;;;;;;;0.50;0.50;;;;;;;13.03;100.00;98979.34;5018806;28;20264;-63
2023/04/21 00:03:22;;;;;;;0.40;0.40;;;;;;;13.02;100.00;98972.53;5016362;28;20201;-63
2023/04/21 00:05:49;;;;;;;0.50;0.50;;;;;;;12.94;100.00;98959.19;5024036;28;20651;-63
2023/04/21 00:08:17;;;;;;;0.50;0.50;;;;;;;13.00;100.00;98971.75;5031599;28;20193;-63
2023/04/21 00:10:45;;;;;;;0.50;0.50;;;;;;;12.96;100.00;98973.63;5031849;28;20198;-63
2023/04/21 00:13:12;;;;;;;0.43;0.43;;;;;;;12.93;100.00;98965.22;5028462;28;20231;-63
2023/04/21 00:15:41;;;;;;;0.87;0.80;;;;;;;12.90;100.00;98965.38;5031560;28;20225;-63
2023/04/21 00:18:08;;;;;;;0.50;0.50;;;;;;;12.89;100.00;98968.88;5031687;28;20197;-63
2023/04/21 00:20:35;;;;;;;0.60;0.60;;;;;;;12.87;100.00;98980.94;5031620;28;20696;-63
2023/04/21 00:23:02;;;;;;;0.60;0.60;;;;;;;12.84;100.00;98971.66;5031659;28;20205;-64
2023/04/21 00:25:29;;;;;;;0.53;0.53;;;;;;;12.84;100.00;98973.38;5031523;28;20263;-64
2023/04/21 00:27:56;;;;;;;0.40;0.40;;;;;;;12.83;100.00;98976.84;5031649;28;20207;-64
2023/04/21 00:30:23;;;;;;;0.50;0.50;;;;;;;12.73;100.00;98973.84;5031568;28;20201;-63
2023/04/21 00:32:51;;;;;;;0.40;0.40;;;;;;;12.71;100.00;98974.84;5031670;28;20212;-63
2023/04/21 00:35:18;;;;;;;0.67;0.67;;;;;;;12.69;100.00;98972.34;5031389;28;20221;-64
2023/04/21 00:37:44;;;;;;;0.40;0.40;;;;;;;12.70;100.00;98968.06;5031500;28;20289;-64
2023/04/21 00:40:12;;;;;;;0.43;0.43;;;;;;;12.66;100.00;98966.50;5031823;28;20205;-63
2023/04/21 00:42:39;;;;;;;0.50;0.50;;;;;;;12.52;100.00;98964.56;5031081;28;20209;-64
2023/04/21 00:45:06;;;;;;;0.63;0.63;;;;;;;12.45;100.00;98969.13;5031727;28;20578;-63
2023/04/21 00:47:33;;;;;;;0.50;0.50;;;;;;;12.40;100.00;98954.84;5031323;28;20267;-63
2023/04/21 00:50:02;;;;;;;0.70;0.70;;;;;;;12.48;100.00;98965.59;5029935;28;20201;-63
2023/04/21 00:52:30;;;;;;;0.40;0.40;;;;;;;12.44;100.00;98957.19;5031160;28;20212;-63
2023/04/21 00:54:57;;;;;;;0.47;0.47;;;;;;;12.34;100.00;98961.06;5031305;28;20678;-63
2023/04/21 00:57:25;;;;;;;0.60;0.60;;;;;;;12.26;100.00;98962.31;5030362;28;20205;-63
2023/04/21 00:59:51;;;;;;;0.70;0.70;;;;;;;12.27;100.00;98959.69;5031264;28;20197;-63
2023/04/21 01:02:19;;;;;;;0.47;0.47;;;;;;;12.26;100.00;98955.44;5031441;28;20201;-63
2023/04/21 01:04:46;;;;;;;0.50;0.50;;;;;;;12.10;100.00;98941.59;5030916;28;20196;-63
2023/04/21 01:07:14;;;;;;;1.90;0.80;;;;;;;12.17;100.00;98957.56;5031134;28;20215;-63
2023/04/21 01:09:40;;;;;;;0.50;0.50;;;;;;;12.16;100.00;98961.88;5031090;28;20205;-63
2023/04/21 01:12:09;;;;;;;0.50;0.50;;;;;;;12.10;100.00;98952.72;5030877;28;20193;-63
2023/04/21 01:14:36;;;;;;;0.43;0.43;;;;;;;12.00;100.00;98941.16;5031114;28;20221;-64
2023/04/21 01:17:06;;;;;;;0.50;0.50;;;;;;;11.96;100.00;98939.59;5031269;28;20205;-63
2023/04/21 01:19:38;;;;;;;0.50;0.50;;;;;;;12.01;100.00;98947.13;5034945;28;20189;-63
2023/04/21 01:22:09;;;;;;;0.63;0.63;;;;;;;11.94;100.00;98927.75;5034990;28;20201;-64
2023/04/21 01:24:37;;;;;;;0.50;0.50;;;;;;;11.98;100.00;98942.97;5035114;28;20577;-63
2023/04/21 01:27:09;;;;;;;0.50;0.50;;;;;;;11.96;100.00;98951.63;5034837;28;20205;-63
2023/04/21 01:29:36;;;;;;;0.60;0.60;;;;;;;11.95;100.00;98942.25;5034901;28;20198;-63
2023/04/21 01:32:08;;;;;;;0.67;0.67;;;;;;;11.93;100.00;98942.31;5035032;28;20624;-64
2023/04/21 01:34:35;;;;;;;0.80;0.80;;;;;;;11.77;100.00;98922.47;5034431;28;20224;-64
2023/04/21 01:37:02;;;;;;;0.47;0.47;;;;;;;11.88;100.00;98943.41;5034863;28;20206;-63
2023/04/21 01:39:30;;;;;;;1.00;1.00;;;;;;;11.79;100.00;98939.50;5034660;28;20280;-63
2023/04/21 01:41:57;;;;;;;0.70;0.70;;;;;;;11.79;100.00;98938.69;5034817;28;20562;-64
2023/04/21 01:44:25;;;;;;;0.40;0.40;;;;;;;11.77;100.00;98943.03;5034588;28;20205;-63
2023/04/21 01:46:52;;;;;;;0.43;0.43;;;;;;;11.75;100.00;98944.84;5034755;28;20284;-63
2023/04/21 01:49:19;;;;;;;0.67;0.67;;;;;;;11.71;100.00;98944.13;5034423;28;20201;-63
2023/04/21 01:51:46;;;;;;;0.40;0.40;;;;;;;11.66;100.00;98945.19;5034204;28;21322;-63
2023/04/21 01:54:13;;;;;;;0.40;0.40;;;;;;;11.62;100.00;98944.47;5034405;28;20202;-64
2023/04/21 01:56:41;;;;;;;0.80;0.80;;;;;;;11.58;100.00;98946.34;5034583;28;20201;-63
2023/04/21 01:59:08;;;;;;;0.60;0.60;;;;;;;11.57;100.00;98952.34;5034446;28;20228;-63
2023/04/21 02:01:35;;;;;;;0.60;0.60;;;;;;;11.50;100.00;98956.06;5034156;28;20243;-63
2023/04/21 02:04:02;;;;;;;0.60;0.60;;;;;;;11.37;100.00;98960.03;5034453;28;20232;-64
2023/04/21 02:06:30;;;;;;;0.60;0.60;;;;;;;11.18;100.00;98933.44;5029359;28;20225;-63
2023/04/21 02:08:56;;;;;;;0.53;0.53;;;;;;;11.22;100.00;98954.69;5021499;28;20247;-64
2023/04/21 02:11:24;;;;;;;0.60;0.60;;;;;;;11.18;100.00;98959.09;5022829;28;20194;-63
2023/04/21 02:13:53;;;;;;;0.60;0.60;;;;;;;11.15;100.00;98964.34;5026590;28;20225;-64
2023/04/21 02:16:20;;;;;;;0.60;0.60;;;;;;;11.13;100.00;98961.03;5026609;28;20218;-63
2023/04/21 02:18:47;;;;;;;0.47;0.47;;;;;;;11.11;100.00;98950.00;5026246;28;20736;-63
2023/04/21 02:21:14;;;;;;;0.57;0.57;;;;;;;11.03;100.00;98965.69;5031334;28;20563;-64
2023/04/21 02:23:40;;;;;;;0.53;0.53;;;;;;;10.91;100.00;98955.06;5029577;28;20205;-63
2023/04/21 02:26:07;;;;;;;0.60;0.60;;;;;;;10.90;100.00;98955.94;5020264;28;20670;-63
2023/04/21 02:28:34;;;;;;;0.60;0.60;;;;;;;10.88;100.00;98955.19;5019947;28;20241;-63
2023/04/21 02:31:02;;;;;;;0.50;0.50;;;;;;;10.89;100.00;98942.28;5025247;28;20570;-63
2023/04/21 02:33:29;;;;;;;0.60;0.60;;;;;;;10.91;100.00;98945.66;5023438;28;20205;-63
2023/04/21 02:36:07;;;;;;;0.50;0.50;;;;;;;10.85;100.00;98935.63;5025993;28;20237;-64
2023/04/21 02:38:33;;;;;;;0.47;0.47;;;;;;;10.94;100.00;98940.41;5021121;28;20208;-63
2023/04/21 02:41:00;;;;;;;0.50;0.50;;;;;;;10.96;100.00;98940.31;5021894;28;20621;-63
2023/04/21 02:43:27;;;;;;;0.50;0.50;;;;;;;11.00;100.00;98947.00;5019265;28;20671;-63
2023/04/21 02:45:54;;;;;;;0.43;0.43;;;;;;;11.00;100.00;98939.31;5018311;28;20586;-63
2023/04/21 02:48:22;;;;;;;0.60;0.60;;;;;;;10.99;100.00;98942.75;5021830;28;20204;-62
2023/04/21 02:50:49;;;;;;;0.53;0.53;;;;;;;10.99;100.00;98938.47;5019272;28;20233;-63
2023/04/21 02:53:16;;;;;;;0.40;0.40;;;;;;;10.98;100.00;98935.97;5022813;28;20281;-63
2023/04/21 02:55:43;;;;;;;0.60;0.60;;;;;;;11.01;100.00;98933.28;5017443;28;20309;-63
2023/04/21 02:58:10;;;;;;;0.57;0.57;;;;;;;10.98;100.00;98930.84;5022568;28;20205;-63
2023/04/21 03:00:37;;;;;;;0.40;0.40;;;;;;;10.99;100.00;98935.06;5024622;28;20698;-63
2023/04/21 03:03:03;;;;;;;0.60;0.60;;;;;;;10.97;100.00;98935.16;5023038;28;20344;-64
2023/04/21 03:05:32;;;;;;;0.50;0.50;;;;;;;10.94;100.00;98950.66;5016096;28;20233;-63
2023/04/21 03:07:59;;;;;;;0.50;0.50;;;;;;;10.91;100.00;98934.53;5016338;28;20202;-63
2023/04/21 03:10:25;;;;;;;0.57;0.57;;;;;;;10.88;100.00;98942.34;5028206;28;20193;-63
2023/04/21 03:12:52;;;;;;;0.50;0.50;;;;;;;10.84;100.00;98948.50;5032944;28;20598;-63
2023/04/21 03:15:19;;;;;;;0.57;0.57;;;;;;;10.81;100.00;98958.88;5031339;28;20299;-62
2023/04/21 03:17:46;;;;;;;0.60;0.60;;;;;;;10.76;100.00;98950.53;5032821;28;20669;-63
2023/04/21 03:20:13;;;;;;;0.40;0.40;;;;;;;10.71;100.00;98950.69;5015938;28;20217;-63
2023/04/21 03:22:41;;;;;;;0.60;0.60;;;;;;;10.69;100.00;98949.09;5025434;28;20284;-64
2023/04/21 03:25:08;;;;;;;0.50;0.50;;;;;;;10.67;100.00;98955.97;5023189;28;20592;-63
2023/04/21 03:27:35;;;;;;;0.50;0.50;;;;;;;10.62;100.00;98952.75;5031262;28;20205;-62
2023/04/21 03:30:02;;;;;;;0.47;0.47;;;;;;;10.62;100.00;98955.34;5022204;28;20640;-63
2023/04/21 03:32:28;;;;;;;0.53;0.53;;;;;;;10.59;100.00;98958.00;5032795;28;20645;-63
2023/04/21 03:34:55;;;;;;;0.40;0.40;;;;;;;10.49;100.00;98953.22;5023807;28;20697;-63
2023/04/21 03:37:22;;;;;;;0.40;0.40;;;;;;;10.47;100.00;98955.00;5022127;28;20202;-63
2023/04/21 03:39:50;;;;;;;0.40;0.40;;;;;;;10.45;100.00;98956.78;5019066;28;20210;-63
2023/04/21 03:42:17;;;;;;;0.40;0.40;;;;;;;10.49;100.00;98962.63;5018337;28;20213;-62
2023/04/21 03:44:43;;;;;;;0.50;0.50;;;;;;;10.45;100.00;98955.94;5029328;28;20197;-63
2023/04/21 03:47:10;;;;;;;0.70;0.70;;;;;;;10.42;100.00;98962.03;5024917;28;20205;-64
2023/04/21 03:49:37;;;;;;;0.50;0.50;;;;;;;10.42;100.00;98956.91;5023853;28;20197;-62
2023/04/21 03:52:04;;;;;;;0.50;0.50;;;;;;;10.32;100.00;98955.56;5021217;28;20658;-62
2023/04/21 03:54:31;;;;;;;0.50;0.50;;;;;;;10.21;100.00;98957.66;5018362;28;20216;-62
2023/04/21 03:56:59;;;;;;;0.50;0.50;;;;;;;10.16;100.00;98954.44;5023897;28;20625;-63
2023/04/21 03:59:26;;;;;;;0.40;0.40;;;;;;;10.09;100.00;98954.66;5022225;28;20205;-63
2023/04/21 04:01:53;;;;;;;0.50;0.50;;;;;;;9.89;100.00;98945.13;5026531;28;20205;-63
2023/04/21 04:04:19;;;;;;;0.70;0.70;;;;;;;9.93;100.00;98962.06;5023138;28;20202;-62
2023/04/21 04:06:46;;;;;;;0.43;0.43;;;;;;;9.82;100.00;98944.50;5017695;28;20217;-63
2023/04/21 04:09:13;;;;;;;1.00;1.00;;;;;;;9.88;100.00;98964.78;5029786;28;20197;-63
2023/04/21 04:11:40;;;;;;;0.60;0.60;;;;;;;9.92;100.00;98960.38;5028935;28;20690;-63
2023/04/21 04:14:08;;;;;;;0.93;0.93;;;;;;;9.97;100.00;98956.78;5019654;28;20690;-64
2023/04/21 04:16:35;;;;;;;0.60;0.60;;;;;;;9.98;100.00;98963.56;5021854;28;20640;-62
2023/04/21 04:19:02;;;;;;;0.50;0.50;;;;;;;10.05;100.00;98971.84;5018193;28;20697;-63
2023/04/21 04:21:30;;;;;;;0.60;0.60;;;;;;;10.12;100.00;98973.31;5018674;28;20733;-63
2023/04/21 04:23:57;;;;;;;0.60;0.60;;;;;;;10.24;100.00;98970.34;5021875;28;20206;-63
2023/04/21 04:26:24;;;;;;;0.40;0.40;;;;;;;10.37;100.00;98973.34;5024001;28;20193;-63
2023/04/21 04:28:51;;;;;;;0.60;0.60;;;;;;;10.49;100.00;98978.84;5023523;28;20205;-65
2023/04/21 04:31:20;;;;;;;0.57;0.57;;;;;;;10.60;100.00;98969.94;5022021;28;20216;-64
2023/04/21 04:33:47;;;;;;;0.40;0.40;;;;;;;10.75;100.00;98984.75;5023341;28;20201;-65
2023/04/21 04:36:19;;;;;;;0.83;0.83;;;;;;;10.91;100.00;98988.41;5022013;28;20214;-64
2023/04/21 04:38:47;;;;;;;0.53;0.53;;;;;;;11.13;100.00;98985.84;5013328;28;20288;-64
2023/04/21 04:41:14;;;;;;;0.50;0.50;;;;;;;11.28;100.00;98987.78;5025483;28;20207;-63
2023/04/21 04:43:41;;;;;;;0.80;0.80;;;;;;;11.39;100.00;98978.78;5022101;28;20213;-64
2023/04/21 04:46:11;;;;;;;0.50;0.50;;;;;;;11.59;100.00;98989.09;5017343;28;20194;-64
2023/04/21 04:48:39;;;;;;;0.40;0.40;;;;;;;11.77;100.00;98989.25;5018441;28;20206;-65
2023/04/21 04:51:08;;;;;;;0.50;0.50;;;;;;;11.96;100.00;98985.00;5022560;28;20201;-65
2023/04/21 04:53:35;;;;;;;0.43;0.43;;;;;;;12.14;100.00;98989.38;5027504;28;20677;-64
2023/04/21 04:56:01;;;;;;;0.60;0.60;;;;;;;12.31;100.00;98997.16;5022723;28;20716;-64
2023/04/21 04:58:28;;;;;;;0.43;0.43;;;;;;;12.45;100.00;98984.56;5025575;28;20205;-63
2023/04/21 05:00:55;;;;;;;0.63;0.63;;;;;;;12.63;100.00;98994.00;5029351;28;20213;-63
2023/04/21 05:03:22;;;;;;;0.40;0.40;;;;;;;12.69;100.00;98994.66;5026597;28;20194;-63
2023/04/21 05:05:50;;;;;;;0.47;0.47;;;;;;;12.71;100.00;98998.00;5021034;28;20271;-63
2023/04/21 05:08:18;;;;;;;0.50;0.50;;;;;;;12.78;100.00;98989.94;5031253;28;20209;-64
2023/04/21 05:10:45;;;;;;;0.57;0.57;;;;;;;13.00;100.00;98985.47;5031138;28;20204;-64
2023/04/21 05:13:11;;;;;;;0.40;0.40;;;;;;;13.23;100.00;98999.88;5031209;28;20204;-63
2023/04/21 05:15:46;;;;;;;0.57;0.57;;;;;;;13.45;100.00;99000.50;5031345;28;20221;-64
2023/04/21 05:18:13;;;;;;;0.70;0.70;;;;;;;13.61;100.00;99001.44;5030832;28;20200;-64
2023/04/21 05:20:41;;;;;;;0.47;0.47;;;;;;;13.77;100.00;99000.66;5031355;28;20263;-65
2023/04/21 05:23:09;;;;;;;0.50;0.50;;;;;;;13.84;100.00;98989.16;5030885;28;20204;-63
2023/04/21 05:25:37;;;;;;;0.60;0.60;;;;;;;13.90;100.00;98988.84;5031456;28;20565;-64
2023/04/21 05:28:04;;;;;;;0.50;0.50;;;;;;;14.00;100.00;98990.06;5031040;28;20209;-64
2023/04/21 05:30:31;;;;;;;0.60;0.60;;;;;;;14.15;100.00;98986.72;5031216;28;20206;-62
2023/04/21 05:32:58;;;;;;;0.60;0.60;;;;;;;14.26;100.00;98994.72;5031258;28;20209;-63
2023/04/21 05:35:24;;;;;;;0.50;0.50;;;;;;;14.43;100.00;98986.97;5025931;28;20221;-66
2023/04/21 05:37:51;;;;;;;0.43;0.43;;;;;;;14.58;100.00;98991.31;5031754;28;20259;-64
2023/04/21 05:40:20;;;;;;;0.43;0.43;;;;;;;14.75;100.00;98992.19;5031108;28;20259;-64
2023/04/21 05:42:46;;;;;;;0.67;0.67;;;;;;;14.92;100.00;98994.69;5031257;28;20212;-64
2023/04/21 05:45:13;;;;;;;0.50;0.50;;;;;;;15.06;100.00;98989.59;5031116;28;20209;-64
2023/04/21 05:47:40;;;;;;;0.50;0.50;;;;;;;15.18;100.00;98992.38;5031241;28;20206;-64
2023/04/21 05:50:07;;;;;;;0.50;0.50;;;;;;;15.28;100.00;98997.84;5030953;28;20197;-63
2023/04/21 05:52:36;;;;;;;0.90;0.90;;;;;;;15.35;98.52;98988.81;5030957;28;20252;-65
2023/04/21 05:55:03;;;;;;;0.60;0.60;;;;;;;15.51;98.35;98979.31;5030878;28;20204;-65
2023/04/21 05:57:31;;;;;;;0.60;0.60;;;;;;;15.61;94.55;98984.78;5030802;28;20225;-63
2023/04/21 05:59:58;;;;;;;0.50;0.50;;;;;;;15.68;93.38;98986.94;5031323;28;20284;-62
2023/04/21 06:02:25;;;;;;;0.60;0.60;;;;;;;15.85;91.86;98978.22;5030951;28;20216;-63
2023/04/21 06:04:52;;;;;;;0.60;0.60;;;;;;;16.02;91.38;98982.41;5033419;28;20216;-64
2023/04/21 06:07:19;;;;;;;0.70;0.70;;;;;;;16.23;88.88;98988.88;5021787;28;20197;-64
2023/04/21 06:09:50;;;;;;;0.60;0.60;;;;;;;16.38;87.38;98985.38;5027003;28;20578;-65
2023/04/21 06:12:17;;;;;;;0.40;0.40;;;;;;;16.52;86.20;98992.31;5022040;28;20682;-64
2023/04/21 06:14:45;;;;;;;0.50;0.50;;;;;;;16.64;86.39;98989.84;5029645;28;20673;-67
2023/04/21 06:17:16;;;;;;;0.70;0.70;;;;;;;16.71;84.13;98991.13;5021730;28;20748;-64
2023/04/21 06:19:43;;;;;;;2.90;0.90;;;;;;;16.78;83.46;98983.81;5017983;28;20213;-65
2023/04/21 06:22:10;;;;;;;0.90;0.90;;;;;;;16.76;82.70;98989.09;5027273;28;20206;-64
2023/04/21 06:24:36;;;;;;;0.60;0.60;;;;;;;16.85;83.66;98989.44;5025744;28;20202;-63
2023/04/21 06:27:03;;;;;;;0.83;0.83;;;;;;;16.97;83.67;98988.66;5034300;28;20202;-64
2023/04/21 06:29:30;;;;;;;0.47;0.47;;;;;;;17.07;83.49;98982.00;5034133;28;20205;-66
2023/04/21 06:31:58;;;;;;;0.70;0.70;;;;;;;17.18;81.67;98980.41;5027227;28;20206;-63
2023/04/21 06:34:25;;;;;;;0.60;0.60;;;;;;;17.47;83.41;98985.47;5030668;28;20213;-64
2023/04/21 06:36:52;;;;;;;0.60;0.60;;;;;;;17.80;82.79;98983.31;5033706;28;20283;-64
2023/04/21 06:39:18;;;;;;;1.07;1.07;;;;;;;17.90;77.83;98983.53;5033967;28;20209;-65
2023/04/21 06:41:45;;;;;;;0.50;0.50;;;;;;;17.91;79.01;98974.78;5033834;28;20263;-64
2023/04/21 06:44:13;;;;;;;0.60;0.60;;;;;;;17.86;79.77;98982.06;5034108;28;20235;-65
2023/04/21 06:46:40;;;;;;;0.47;0.47;;;;;;;17.95;78.83;98963.28;5025343;28;20259;-65
2023/04/21 06:49:08;;;;;;;0.53;0.53;;;;;;;18.05;77.68;98977.31;5032309;28;20304;-64
2023/04/21 06:51:36;;;;;;;0.60;0.60;;;;;;;18.20;78.24;98986.63;5032107;28;20210;-65
2023/04/21 06:54:03;;;;;;;0.40;0.40;;;;;;;18.33;78.49;98988.28;5013699;28;20286;-65
2023/04/21 06:56:30;;;;;;;0.53;0.53;;;;;;;18.58;79.12;98987.47;5029188;28;20287;-65
2023/04/21 06:58:57;;;;;;;0.63;0.63;;;;;;;18.70;77.09;98991.81;5030808;28;20217;-64
2023/04/21 07:01:23;;;;;;;0.47;0.47;;;;;;;18.91;77.69;98999.88;5013828;28;20206;-65
2023/04/21 07:03:50;;;;;;;0.70;0.70;;;;;;;19.03;75.91;98998.19;5030275;28;20588;-65
2023/04/21 07:06:18;;;;;;;0.50;0.50;;;;;;;19.06;76.76;98982.38;5021809;28;20644;-66
2023/04/21 07:08:45;;;;;;;0.50;0.50;;;;;;;19.16;76.25;98993.78;5013581;28;20208;-64
2023/04/21 07:11:12;;;;;;;0.50;0.50;;;;;;;19.21;75.56;98996.88;5013725;28;20212;-65
2023/04/21 07:13:39;;;;;;;0.40;0.40;;;;;;;19.34;74.56;99001.06;5018411;28;20207;-66
2023/04/21 07:16:06;;;;;;;0.60;0.60;;;;;;;19.27;73.63;99001.63;5021249;28;20218;-64
2023/04/21 07:18:33;;;;;;;1.03;1.03;;;;;;;19.40;72.35;98999.81;5031908;28;20287;-65
2023/04/21 07:21:00;;;;;;;0.30;0.30;;;;;;;19.56;70.68;98989.13;5016670;28;20206;-64
2023/04/21 07:23:28;;;;;;;0.50;0.50;;;;;;;19.57;72.54;98991.63;5019549;28;20291;-65
2023/04/21 07:25:55;;;;;;;0.50;0.50;;;;;;;19.78;71.79;98997.00;5033105;28;20208;-65
2023/04/21 07:28:22;;;;;;;0.67;0.67;;;;;;;20.10;71.11;98989.38;5030343;28;20255;-65
2023/04/21 07:30:49;;;;;;;0.40;0.40;;;;;;;20.20;67.64;99004.22;5020448;28;20211;-66
2023/04/21 07:33:15;;;;;;;0.60;0.60;;;;;;;20.32;68.01;98998.09;5031000;28;20195;-66
2023/04/21 07:35:42;;;;;;;0.50;0.50;;;;;;;20.55;69.98;98993.72;5019893;28;20251;-65
2023/04/21 07:38:09;;;;;;;0.40;0.40;;;;;;;20.69;66.94;98996.09;5024194;28;20194;-64
2023/04/21 07:40:37;;;;;;;0.45;0.45;;;;;;;20.63;65.59;98991.38;5026515;28;20872;-67
2023/04/21 07:43:04;;;;;;;0.47;0.47;;;;;;;20.77;67.35;98988.53;5028916;28;20206;-67
2023/04/21 07:45:31;;;;;;;0.53;0.53;;;;;;;20.93;65.29;98988.97;5010871;28;20242;-67
2023/04/21 07:47:58;;;;;;;0.60;0.60;;;;;;;20.99;68.35;98992.03;5014453;28;20259;-67
2023/04/21 07:50:25;;;;;;;0.37;0.37;;;;;;;21.02;66.10;98986.56;5011188;28;20204;-68
2023/04/21 07:52:51;;;;;;;0.40;0.40;;;;;;;21.01;64.38;99005.75;5014821;28;20213;-68
2023/04/21 07:55:18;;;;;;;0.30;0.30;;;;;;;20.95;64.76;98994.88;5024719;28;20215;-67
2023/04/21 07:57:46;;;;;;;0.47;0.47;;;;;;;21.08;65.57;98991.31;5026273;28;20275;-67
2023/04/21 08:00:14;;;;;;;0.47;0.47;;;;;;;21.06;65.31;98983.63;5010589;28;20198;-67
2023/04/21 08:02:41;;;;;;;0.40;0.40;;;;;;;21.22;65.03;98986.69;5012378;28;20220;-67
2023/04/21 08:05:08;;;;;;;0.40;0.40;;;;;;;21.08;67.25;98986.09;5016516;28;20228;-67
2023/04/21 08:07:35;;;;;;;0.30;0.30;;;;;;;21.22;65.34;98988.47;5031058;28;20227;-65
2023/04/21 08:10:02;;;;;;;0.60;0.60;;;;;;;21.34;66.27;98995.28;5031434;28;20205;-65
2023/04/21 08:12:29;;;;;;;0.40;0.40;;;;;;;21.34;64.14;98993.53;5031422;28;20204;-65
2023/04/21 08:14:57;;;;;;;0.43;0.43;;;;;;;21.42;62.16;98990.31;5030262;28;20262;-66
2023/04/21 08:17:24;;;;;;;0.40;0.40;;;;;;;21.52;64.50;98980.75;5030805;28;20213;-68
2023/04/21 08:19:51;;;;;;;0.40;0.40;;;;;;;21.54;63.73;98970.22;5030514;28;20276;-68
2023/04/21 08:22:18;;;;;;;0.33;0.33;;;;;;;21.61;61.56;98974.81;5030679;28;20201;-68
2023/04/21 08:24:44;;;;;;;0.60;0.60;;;;;;;21.69;64.83;98972.38;5031188;28;20202;-68
2023/04/21 08:27:11;;;;;;;0.50;0.50;;;;;;;21.75;66.27;98965.81;5030165;28;20662;-68
2023/04/21 08:29:38;;;;;;;0.53;0.53;;;;;;;21.89;65.31;98970.75;5030812;28;20670;-66
2023/04/21 08:32:06;;;;;;;0.33;0.33;;;;;;;21.91;62.99;98981.91;5030416;28;20202;-67
2023/04/21 08:34:34;;;;;;;0.30;0.30;;;;;;;21.97;62.37;98978.81;5030331;28;20205;-68
2023/04/21 08:37:00;;;;;;;0.50;0.50;;;;;;;22.13;61.88;98978.34;5029741;28;20216;-66
2023/04/21 08:39:28;;;;;;;0.30;0.30;;;;;;;22.13;63.57;98983.56;5030576;28;20197;-66
2023/04/21 08:41:56;;;;;;;0.30;0.30;;;;;;;22.17;59.30;98977.09;5030728;28;20300;-66
2023/04/21 08:44:22;;;;;;;0.40;0.40;;;;;;;22.32;63.07;98979.28;5030390;28;20208;-66
2023/04/21 08:46:50;;;;;;;0.40;0.40;;;;;;;22.34;60.26;98960.84;5030283;28;20197;-65
2023/04/21 08:49:20;;;;;;;0.53;0.53;;;;;;;22.58;58.94;98981.44;5030583;28;20197;-66
2023/04/21 08:51:48;;;;;;;0.30;0.30;;;;;;;22.54;57.67;98975.63;5027566;28;20490;-61
2023/04/21 08:54:14;;;;;;;0.20;0.20;;;;;;;22.51;59.50;98970.69;5030169;28;20522;-62
2023/04/21 08:56:43;;;;;;;0.50;0.50;;;;;;;22.71;59.77;98972.44;5030937;28;20575;-63
2023/04/21 08:59:10;;;;;;;0.40;0.40;;;;;;;22.81;56.91;98967.25;5030781;28;20198;-62
2023/04/21 09:02:08;;;;;;;0.30;0.30;;;;;;;22.84;57.52;98967.78;5030656;28;20581;-62
2023/04/21 09:04:38;;;;;;;0.33;0.33;;;;;;;22.88;59.96;98957.88;5028426;28;20201;-63
2023/04/21 09:07:08;;;;;;;0.40;0.40;;;;;;;22.95;59.08;98961.63;5029711;28;20197;-62
2023/04/21 09:09:51;;;;;;;0.30;0.30;;;;;;;23.07;56.11;98964.97;5031035;28;20267;-64
2023/04/21 09:12:18;;;;;;;0.30;0.30;;;;;;;23.17;60.60;98947.47;5029099;28;20293;-63
2023/04/21 09:14:45;;;;;;;0.40;0.40;;;;;;;23.33;58.50;98935.50;5030719;28;20271;-63
2023/04/21 09:17:12;;;;;;;0.40;0.40;;;;;;;23.45;56.48;98946.69;5030820;28;20581;-63
2023/04/21 09:19:40;;;;;;;0.40;0.40;;;;;;;23.50;52.96;98950.56;5028703;28;20205;-63
2023/04/21 09:22:07;;;;;;;0.37;0.37;;;;;;;23.32;50.50;98940.88;5031329;28;20681;-64
2023/04/21 09:24:34;;;;;;;0.47;0.47;;;;;;;23.20;51.27;98934.16;5031327;28;20206;-63
2023/04/21 09:27:03;;;;;;;0.30;0.30;;;;;;;23.22;52.24;98932.22;5031458;28;20288;-63
2023/04/21 09:29:30;;;;;;;0.30;0.30;;;;;;;23.35;51.08;98932.75;5031244;28;20647;-64
2023/04/21 09:31:57;;;;;;;0.30;0.30;;;;;;;23.46;51.78;98930.03;5030990;28;20237;-64
2023/04/21 09:34:25;;;;;;;0.40;0.40;;;;;;;23.54;53.76;98919.69;5031004;28;20732;-64
2023/04/21 09:37:01;;;;;;;0.40;0.40;;;;;;;23.65;52.67;98922.16;5031354;28;20220;-64
2023/04/21 09:39:29;;;;;;;0.40;0.40;;;;;;;23.73;54.11;98921.47;5033441;28;20590;-62
2023/04/21 09:41:57;;;;;;;0.30;0.30;;;;;;;23.87;49.93;98921.84;5034781;28;20201;-64
2023/04/21 09:44:24;;;;;;;0.30;0.30;;;;;;;23.71;50.93;98905.06;5034923;28;20203;-63
2023/04/21 09:46:51;;;;;;;0.40;0.40;;;;;;;23.82;50.23;98913.59;5034975;28;20244;-63
2023/04/21 09:49:18;;;;;;;0.50;0.50;;;;;;;23.87;52.92;98916.63;5034799;28;20223;-63
2023/04/21 09:51:45;;;;;;;0.50;0.50;;;;;;;23.97;50.40;98906.91;5034748;28;20200;-63
2023/04/21 09:54:17;;;;;;;0.33;0.33;;;;;;;23.96;52.70;98907.91;5034493;28;20622;-65
2023/04/21 09:56:47;;;;;;;0.40;0.40;;;;;;;24.07;47.80;98911.31;5034691;28;20559;-63
2023/04/21 09:59:19;;;;;;;0.40;0.40;;;;;;;24.17;53.99;98899.06;5034659;28;20255;-64
2023/04/21 10:01:49;;;;;;;0.57;0.33;;;;;;;24.19;51.43;98902.34;5034595;28;20210;-63
2023/04/21 10:04:18;;;;;;;0.30;0.30;;;;;;;24.24;55.93;98897.47;5034587;28;20733;-63
2023/04/21 10:06:47;;;;;;;4.37;0.60;;;;;;;24.13;53.08;98897.69;5023005;28;20717;-65
2023/04/21 10:09:18;;;;;;;0.30;0.30;;;;;;;24.12;49.01;98889.00;5025146;28;20230;-63
2023/04/21 10:11:45;;;;;;;0.40;0.40;;;;;;;24.37;52.18;98892.75;5022858;28;20209;-64
2023/04/21 10:14:11;;;;;;;0.20;0.20;;;;;;;24.42;51.96;98885.28;5034342;28;20205;-63
2023/04/21 10:16:38;;;;;;;0.30;0.30;;;;;;;24.52;50.23;98886.06;5018821;28;20674;-64
2023/04/21 10:19:24;;;;;;;0.30;0.30;;;;;;;24.69;49.17;98872.13;5025586;28;20201;-63
2023/04/21 10:21:51;;;;;;;0.43;0.43;;;;;;;24.84;46.55;98873.31;5025106;28;20293;-64
2023/04/21 10:24:19;;;;;;;0.87;0.30;;;;;;;25.08;51.87;98873.53;5028259;28;20212;-64
2023/04/21 10:26:46;;;;;;;0.30;0.30;;;;;;;25.19;51.29;98866.41;5027293;28;20197;-65
2023/04/21 10:29:14;;;;;;;0.30;0.30;;;;;;;25.16;47.59;98864.09;5014749;28;20257;-63
2023/04/21 10:31:51;;;;;;;0.30;0.30;;;;;;;24.97;46.90;98871.16;5014303;28;20633;-63
2023/04/21 10:34:28;;;;;;;0.20;0.20;;;;;;;24.77;44.68;98874.03;5014366;28;20263;-64
2023/04/21 10:37:19;;;;;;;0.40;0.40;;;;;;;24.55;45.04;98875.28;5029317;28;20198;-65
2023/04/21 10:39:53;;;;;;;0.30;0.30;;;;;;;24.62;45.01;98876.31;5029260;28;20629;-63
2023/04/21 10:42:23;;;;;;;0.50;0.50;;;;;;;24.57;43.44;98878.56;5034057;28;20201;-63
2023/04/21 10:45:11;;;;;;;0.50;0.50;;;;;;;24.38;43.53;98879.50;5033810;28;20213;-63
2023/04/21 10:47:50;;;;;;;0.30;0.30;;;;;;;24.19;40.42;98878.78;5020422;28;20238;-62
2023/04/21 10:50:22;;;;;;;0.40;0.40;;;;;;;23.92;43.40;98866.44;5013654;28;20683;-62
2023/04/21 10:52:58;;;;;;;0.40;0.40;;;;;;;23.40;44.82;98857.31;5025855;28;20221;-62
2023/04/21 10:55:30;;;;;;;0.30;0.30;;;;;;;23.29;44.30;98866.13;5018689;28;20229;-63
2023/04/21 10:57:58;;;;;;;0.40;0.40;;;;;;;22.96;46.56;98872.63;5022001;28;20304;-61
2023/04/21 11:00:25;;;;;;;0.37;0.37;;;;;;;22.57;49.16;98878.72;5025110;28;20209;-62
2023/04/21 11:03:02;;;;;;;0.30;0.30;;;;;;;22.12;49.52;98880.06;5033390;28;20326;-63
2023/04/21 11:05:30;;;;;;;0.30;0.30;;;;;;;22.11;48.97;98879.25;5029739;28;20752;-63
2023/04/21 11:08:05;;;;;;;0.40;0.40;;;;;;;22.27;48.74;98876.97;5013504;28;20213;-63
2023/04/21 11:10:44;;;;;;;2.47;1.27;;;;;;;22.21;49.82;98867.06;5020204;28;20593;-62
2023/04/21 11:13:10;;;;;;;0.87;0.87;;;;;;;22.00;51.78;98870.69;5028776;28;20202;-62
2023/04/21 11:15:37;;;;;;;0.40;0.40;;;;;;;21.87;50.12;98871.69;5024740;28;20681;-61
2023/04/21 11:18:06;;;;;;;0.50;0.50;;;;;;;21.79;49.47;98874.13;5022587;28;20222;-62
2023/04/21 11:20:32;;;;;;;0.97;0.97;;;;;;;21.92;50.81;98868.72;5020679;28;20206;-62
2023/04/21 11:22:59;;;;;;;0.40;0.40;;;;;;;21.82;51.30;98875.66;5023716;28;20582;-63
2023/04/21 11:25:26;;;;;;;0.97;0.57;;;;;;;21.74;50.79;98876.31;5013396;28;20206;-62
2023/04/21 11:27:55;;;;;;;0.40;0.40;;;;;;;21.54;52.04;98878.91;5013281;28;20265;-62
2023/04/21 11:30:31;;;;;;;0.40;0.40;;;;;;;21.58;56.47;98875.94;5013256;28;20206;-63
2023/04/21 11:36:21;;;;;;;0.50;0.50;;;;;;;21.66;59.57;98873.50;5028896;28;20192;-63